ETH740 HAAB-LEMD
Flight info
| Callsign | ETH740 |
|---|---|
| Flight time | N/A |
| Altitude | 36000 |
| Route | LABLA3A LABLA UT124 ALRAP/N0494F370 DCT KSL/N0494F380 DCT TOMRU P751 METRU UL81 LORNO/N0485F400 DCT RONAB DCT VELEX DCT QUENN DCT EPIKU DCT GINOX DCT KIFMI DCT ELVOP DCT MUREN DCT CHELY DCT VERSO DCT SULID DCT SADEM DCT BCN/N0482F410 DCT ANTON DCT XIKEN DCT OSLAP DCT SALAS DCT RAMON DCT NEXAS DCT DISVU DCT ADUXO |
| Aircraft | B788/H-SDE1E2E3FGHIJ2J3J4J5M1RWXY/LB1D1 |
Departure
| Time | 2026-04-27 23:29 |
|---|---|
| Airport | Addis Ababa Bole International Airport (HAAB) |
Arrival
| Time | N/A |
|---|---|
| Airport | Adolfo Suárez Madrid–Barajas Airport (LEMD) |
| Time | Latitude | Longitude | Altitude | Speed | Heading |
|---|---|---|---|---|---|
| 2026-04-27 23:16 | 8.98206 | 38.79614 | 7622 ft | 0 kts | 342° |
| 2026-04-27 23:22 | 8.98191 | 38.79618 | 7624 ft | 4 kts | 349° |
| 2026-04-27 23:23 | 8.98169 | 38.79623 | 7625 ft | 4 kts | 322° |
| 2026-04-27 23:23 | 8.98156 | 38.79637 | 7630 ft | 4 kts | 296° |
| 2026-04-27 23:23 | 8.98151 | 38.79657 | 7622 ft | 4 kts | 260° |
| 2026-04-27 23:23 | 8.98158 | 38.79682 | 7624 ft | 4 kts | 252° |
| 2026-04-27 23:24 | 8.98160 | 38.79688 | 7625 ft | 0 kts | 253° |
| 2026-04-27 23:25 | 8.98160 | 38.79687 | 7625 ft | 1 kts | 253° |
| 2026-04-27 23:26 | 8.98147 | 38.79644 | 7622 ft | 12 kts | 253° |
| 2026-04-27 23:26 | 8.98103 | 38.79502 | 7622 ft | 32 kts | 251° |
| 2026-04-27 23:26 | 8.98022 | 38.79232 | 7622 ft | 43 kts | 253° |
| 2026-04-27 23:26 | 8.97941 | 38.78966 | 7622 ft | 36 kts | 253° |
| 2026-04-27 23:27 | 8.97866 | 38.78753 | 7623 ft | 23 kts | 220° |
| 2026-04-27 23:27 | 8.97735 | 38.78767 | 7623 ft | 19 kts | 165° |
| 2026-04-27 23:27 | 8.97608 | 38.78816 | 7625 ft | 22 kts | 140° |
| 2026-04-27 23:27 | 8.97527 | 38.79009 | 7622 ft | 40 kts | 104° |
| 2026-04-27 23:28 | 8.97521 | 38.79346 | 7621 ft | 60 kts | 73° |
| 2026-04-27 23:28 | 8.97705 | 38.79969 | 7623 ft | 126 kts | 73° |
| 2026-04-27 23:28 | 8.98027 | 38.81061 | 7619 ft | 199 kts | 73° |
| 2026-04-27 23:28 | 8.98436 | 38.82518 | 8190 ft | 215 kts | 75° |
| 2026-04-27 23:29 | 8.98818 | 38.83964 | 9257 ft | 213 kts | 76° |
| 2026-04-27 23:29 | 8.99198 | 38.85430 | 9761 ft | 219 kts | 74° |
| 2026-04-27 23:29 | 8.99618 | 38.86950 | 10188 ft | 227 kts | 74° |
| 2026-04-27 23:29 | 9.00047 | 38.88483 | 10758 ft | 226 kts | 73° |
| 2026-04-27 23:30 | 9.00462 | 38.89988 | 11275 ft | 227 kts | 73° |
| 2026-04-27 23:30 | 9.00897 | 38.91540 | 11769 ft | 230 kts | 73° |
| 2026-04-27 23:30 | 9.01337 | 38.93132 | 12134 ft | 239 kts | 72° |
| 2026-04-27 23:30 | 9.02191 | 38.94588 | 12286 ft | 253 kts | 37° |
| 2026-04-27 23:31 | 9.03847 | 38.95221 | 12632 ft | 260 kts | 359° |
| 2026-04-27 23:31 | 9.05629 | 38.94777 | 12970 ft | 278 kts | 332° |
| 2026-04-27 23:31 | 9.07157 | 38.93495 | 13270 ft | 292 kts | 311° |
| 2026-04-27 23:31 | 9.08428 | 38.91847 | 13632 ft | 309 kts | 308° |
| 2026-04-27 23:32 | 9.09739 | 38.90009 | 13798 ft | 334 kts | 307° |
| 2026-04-27 23:32 | 9.11079 | 38.88115 | 13967 ft | 357 kts | 307° |
| 2026-04-27 23:32 | 9.12537 | 38.86074 | 14123 ft | 379 kts | 307° |
| 2026-04-27 23:32 | 9.14124 | 38.83873 | 14501 ft | 393 kts | 307° |
| 2026-04-27 23:33 | 9.15744 | 38.81640 | 15038 ft | 400 kts | 307° |
| 2026-04-27 23:33 | 9.17418 | 38.79371 | 15631 ft | 403 kts | 310° |
| 2026-04-27 23:33 | 9.19499 | 38.77466 | 16120 ft | 404 kts | 328° |
| 2026-04-27 23:33 | 9.21910 | 38.75965 | 16606 ft | 411 kts | 329° |
| 2026-04-27 23:34 | 9.24374 | 38.74449 | 17241 ft | 415 kts | 329° |
| 2026-04-27 23:34 | 9.26817 | 38.72915 | 17928 ft | 419 kts | 328° |
| 2026-04-27 23:34 | 9.29296 | 38.71330 | 18303 ft | 423 kts | 328° |
| 2026-04-27 23:34 | 9.31792 | 38.69714 | 18285 ft | 424 kts | 328° |
| 2026-04-27 23:35 | 9.34274 | 38.68096 | 18282 ft | 425 kts | 328° |
| 2026-04-27 23:35 | 9.36763 | 38.66474 | 18283 ft | 425 kts | 328° |
| 2026-04-27 23:35 | 9.39255 | 38.64852 | 18280 ft | 425 kts | 328° |
| 2026-04-27 23:35 | 9.41783 | 38.63261 | 18661 ft | 431 kts | 329° |
| 2026-04-27 23:36 | 9.44354 | 38.61683 | 19251 ft | 432 kts | 329° |
| 2026-04-27 23:36 | 9.46911 | 38.60123 | 19846 ft | 435 kts | 329° |
| 2026-04-27 23:36 | 9.49516 | 38.58534 | 20364 ft | 439 kts | 329° |
| 2026-04-27 23:36 | 9.52163 | 38.56916 | 20853 ft | 444 kts | 329° |
| 2026-04-27 23:37 | 9.54825 | 38.55284 | 21354 ft | 448 kts | 329° |
| 2026-04-27 23:37 | 9.57468 | 38.53660 | 21847 ft | 452 kts | 329° |
| 2026-04-27 23:37 | 9.60171 | 38.51998 | 22354 ft | 456 kts | 329° |
| 2026-04-27 23:37 | 9.62905 | 38.50315 | 22885 ft | 459 kts | 329° |
| 2026-04-27 23:38 | 9.65653 | 38.48622 | 23361 ft | 463 kts | 329° |
| 2026-04-27 23:38 | 9.68408 | 38.46923 | 23803 ft | 467 kts | 329° |
| 2026-04-27 23:38 | 9.71161 | 38.45226 | 24184 ft | 470 kts | 329° |
| 2026-04-27 23:38 | 9.73972 | 38.43494 | 24574 ft | 473 kts | 329° |
| 2026-04-27 23:39 | 9.76805 | 38.41747 | 25004 ft | 475 kts | 329° |
| 2026-04-27 23:39 | 9.79639 | 38.40000 | 25421 ft | 477 kts | 329° |
| 2026-04-27 23:39 | 9.81521 | 38.38839 | 25664 ft | 479 kts | 329° |
| 2026-04-27 23:39 | 9.84388 | 38.37071 | 26027 ft | 483 kts | 329° |
| 2026-04-27 23:40 | 9.87281 | 38.35286 | 26380 ft | 486 kts | 329° |
| 2026-04-27 23:40 | 9.90145 | 38.33520 | 26792 ft | 487 kts | 329° |
| 2026-04-27 23:40 | 9.93049 | 38.31727 | 27159 ft | 490 kts | 329° |
| 2026-04-27 23:40 | 9.95973 | 38.29922 | 27552 ft | 492 kts | 329° |
| 2026-04-27 23:41 | 9.98908 | 38.28110 | 27935 ft | 494 kts | 329° |
| 2026-04-27 23:41 | 10.01849 | 38.26294 | 28225 ft | 498 kts | 329° |
| 2026-04-27 23:41 | 10.04767 | 38.24491 | 28523 ft | 501 kts | 329° |
| 2026-04-27 23:41 | 10.07752 | 38.22647 | 28875 ft | 502 kts | 329° |
| 2026-04-27 23:42 | 10.10750 | 38.20795 | 29213 ft | 504 kts | 329° |
| 2026-04-27 23:42 | 10.13724 | 38.18956 | 29494 ft | 507 kts | 329° |
| 2026-04-27 23:42 | 10.16745 | 38.17088 | 29810 ft | 509 kts | 329° |
| 2026-04-27 23:42 | 10.19772 | 38.15216 | 30235 ft | 508 kts | 329° |
| 2026-04-27 23:43 | 10.22751 | 38.13373 | 30642 ft | 506 kts | 329° |
| 2026-04-27 23:43 | 10.25751 | 38.11517 | 31053 ft | 504 kts | 329° |
| 2026-04-27 23:43 | 10.28741 | 38.09667 | 31514 ft | 501 kts | 329° |
| 2026-04-27 23:43 | 10.31707 | 38.07831 | 31974 ft | 498 kts | 329° |
| 2026-04-27 23:44 | 10.34664 | 38.06000 | 32405 ft | 496 kts | 329° |
| 2026-04-27 23:44 | 10.37619 | 38.04170 | 32819 ft | 494 kts | 329° |
| 2026-04-27 23:44 | 10.40474 | 38.02402 | 33200 ft | 493 kts | 329° |
| 2026-04-27 23:44 | 10.43402 | 38.00588 | 33615 ft | 491 kts | 329° |
| 2026-04-27 23:45 | 10.46324 | 37.98777 | 33994 ft | 490 kts | 329° |
| 2026-04-27 23:45 | 10.49235 | 37.96972 | 34349 ft | 488 kts | 329° |
| 2026-04-27 23:45 | 10.52071 | 37.95213 | 34647 ft | 487 kts | 329° |
| 2026-04-27 23:45 | 10.54968 | 37.93417 | 34996 ft | 485 kts | 329° |
| 2026-04-27 23:46 | 10.57820 | 37.91674 | 35317 ft | 484 kts | 330° |
| 2026-04-27 23:46 | 10.60742 | 37.89954 | 35615 ft | 482 kts | 331° |
| 2026-04-27 23:46 | 10.63666 | 37.88266 | 35919 ft | 481 kts | 332° |
| 2026-04-27 23:46 | 10.66581 | 37.86592 | 36201 ft | 480 kts | 331° |
| 2026-04-27 23:47 | 10.69490 | 37.84919 | 36502 ft | 479 kts | 331° |
| 2026-04-27 23:47 | 10.72357 | 37.83262 | 36729 ft | 479 kts | 331° |
| 2026-04-27 23:47 | 10.75250 | 37.81584 | 36945 ft | 479 kts | 331° |
| 2026-04-27 23:47 | 10.78148 | 37.79899 | 37152 ft | 479 kts | 331° |
| 2026-04-27 23:48 | 10.81049 | 37.78210 | 37286 ft | 481 kts | 331° |
| 2026-04-27 23:48 | 10.83962 | 37.76512 | 37398 ft | 483 kts | 331° |
| 2026-04-27 23:48 | 10.86858 | 37.74823 | 37529 ft | 484 kts | 331° |
| 2026-04-27 23:48 | 10.89787 | 37.73114 | 37634 ft | 486 kts | 331° |
| 2026-04-27 23:49 | 10.92724 | 37.71401 | 37741 ft | 487 kts | 331° |
| 2026-04-27 23:49 | 10.95681 | 37.69676 | 37859 ft | 488 kts | 331° |
| 2026-04-27 23:49 | 11.01559 | 37.66246 | 38054 ft | 491 kts | 331° |
| 2026-04-27 23:50 | 11.04517 | 37.64520 | 38164 ft | 491 kts | 331° |
| 2026-04-27 23:50 | 11.07495 | 37.62781 | 38268 ft | 492 kts | 331° |
| 2026-04-27 23:50 | 11.10456 | 37.61052 | 38369 ft | 493 kts | 331° |
| 2026-04-27 23:50 | 11.13431 | 37.59314 | 38454 ft | 494 kts | 331° |
| 2026-04-27 23:51 | 11.19399 | 37.55826 | 38661 ft | 494 kts | 331° |
| 2026-04-27 23:51 | 11.25336 | 37.52354 | 38799 ft | 495 kts | 331° |
| 2026-04-27 23:52 | 11.31325 | 37.48852 | 38890 ft | 496 kts | 331° |
| 2026-04-27 23:52 | 11.37256 | 37.45381 | 38984 ft | 497 kts | 331° |
| 2026-04-27 23:53 | 11.43230 | 37.41882 | 39094 ft | 498 kts | 331° |
| 2026-04-27 23:53 | 11.49241 | 37.38361 | 39177 ft | 498 kts | 331° |
| 2026-04-27 23:54 | 11.55267 | 37.34829 | 39238 ft | 499 kts | 331° |
| 2026-04-27 23:54 | 11.61262 | 37.31315 | 39315 ft | 499 kts | 331° |
| 2026-04-27 23:55 | 11.67396 | 37.27967 | 39377 ft | 500 kts | 333° |
| 2026-04-27 23:55 | 11.73596 | 37.24731 | 39436 ft | 500 kts | 333° |
| 2026-04-27 23:56 | 11.79796 | 37.21468 | 39486 ft | 501 kts | 333° |
| 2026-04-27 23:56 | 11.85886 | 37.18226 | 39521 ft | 501 kts | 333° |
| 2026-04-27 23:57 | 11.92080 | 37.14915 | 39583 ft | 501 kts | 333° |
| 2026-04-27 23:57 | 11.98263 | 37.11608 | 39658 ft | 501 kts | 333° |
| 2026-04-27 23:58 | 12.04438 | 37.08305 | 39737 ft | 500 kts | 333° |
| 2026-04-27 23:58 | 12.10578 | 37.05021 | 39804 ft | 500 kts | 333° |
| 2026-04-27 23:59 | 12.16747 | 37.01721 | 39925 ft | 498 kts | 333° |
| 2026-04-27 23:59 | 12.22839 | 36.98459 | 39964 ft | 497 kts | 333° |
| 2026-04-28 00:00 | 12.28973 | 36.95172 | 39974 ft | 496 kts | 333° |
| 2026-04-28 00:00 | 12.35025 | 36.91929 | 39954 ft | 495 kts | 333° |
| 2026-04-28 00:01 | 12.41127 | 36.88657 | 39956 ft | 494 kts | 333° |
| 2026-04-28 00:01 | 12.47188 | 36.85404 | 39939 ft | 493 kts | 333° |
| 2026-04-28 00:02 | 12.53274 | 36.82137 | 39932 ft | 492 kts | 333° |
| 2026-04-28 00:02 | 12.59358 | 36.78869 | 39923 ft | 492 kts | 333° |
| 2026-04-28 00:03 | 12.65383 | 36.75630 | 39917 ft | 491 kts | 333° |
| 2026-04-28 00:03 | 12.71444 | 36.72371 | 39895 ft | 491 kts | 333° |
| 2026-04-28 00:04 | 12.80528 | 36.67656 | 39887 ft | 490 kts | 334° |
| 2026-04-28 00:05 | 12.86630 | 36.64504 | 39887 ft | 490 kts | 334° |
| 2026-04-28 00:05 | 12.92730 | 36.61336 | 39879 ft | 490 kts | 334° |
| 2026-04-28 00:06 | 12.98783 | 36.58185 | 39872 ft | 490 kts | 334° |
| 2026-04-28 00:06 | 13.04885 | 36.55004 | 39866 ft | 491 kts | 334° |
| 2026-04-28 00:07 | 13.10943 | 36.51846 | 39864 ft | 491 kts | 334° |
| 2026-04-28 00:07 | 13.17037 | 36.48667 | 39849 ft | 491 kts | 334° |
| 2026-04-28 00:08 | 13.23144 | 36.45480 | 39849 ft | 491 kts | 333° |
| 2026-04-28 00:08 | 13.29199 | 36.42317 | 39846 ft | 491 kts | 333° |
| 2026-04-28 00:09 | 13.35304 | 36.39127 | 39842 ft | 491 kts | 333° |
| 2026-04-28 00:09 | 13.41395 | 36.35943 | 39838 ft | 491 kts | 333° |
| 2026-04-28 00:10 | 13.47463 | 36.32768 | 39839 ft | 491 kts | 333° |
| 2026-04-28 00:10 | 13.53579 | 36.29566 | 39834 ft | 491 kts | 333° |
| 2026-04-28 00:11 | 13.59633 | 36.26395 | 39839 ft | 491 kts | 333° |
| 2026-04-28 00:11 | 13.65959 | 36.23817 | 39831 ft | 489 kts | 348° |
| 2026-04-28 00:12 | 13.72720 | 36.23134 | 39830 ft | 488 kts | 2° |
| 2026-04-28 00:12 | 13.79485 | 36.23583 | 39832 ft | 488 kts | 4° |
| 2026-04-28 00:13 | 13.86276 | 36.24091 | 39825 ft | 489 kts | 4° |
| 2026-04-28 00:13 | 13.93032 | 36.24545 | 39827 ft | 489 kts | 3° |
| 2026-04-28 00:14 | 13.99839 | 36.24968 | 39828 ft | 489 kts | 3° |
| 2026-04-28 00:14 | 14.06649 | 36.25383 | 39826 ft | 489 kts | 3° |
| 2026-04-28 00:15 | 14.13417 | 36.25798 | 39833 ft | 489 kts | 3° |
| 2026-04-28 00:15 | 14.20236 | 36.26218 | 39834 ft | 489 kts | 3° |
| 2026-04-28 00:16 | 14.27008 | 36.26636 | 39826 ft | 490 kts | 2° |
| 2026-04-28 00:16 | 14.33827 | 36.27057 | 39830 ft | 490 kts | 2° |
| 2026-04-28 00:17 | 14.40601 | 36.27476 | 39830 ft | 490 kts | 2° |
| 2026-04-28 00:17 | 14.47436 | 36.27899 | 39828 ft | 490 kts | 2° |
| 2026-04-28 00:18 | 14.54207 | 36.28318 | 39825 ft | 490 kts | 2° |
| 2026-04-28 00:18 | 14.60973 | 36.28737 | 39826 ft | 490 kts | 2° |
| 2026-04-28 00:19 | 14.67780 | 36.29159 | 39823 ft | 490 kts | 2° |
| 2026-04-28 00:19 | 14.74598 | 36.29581 | 39826 ft | 490 kts | 2° |
| 2026-04-28 00:20 | 14.81377 | 36.30002 | 39828 ft | 490 kts | 2° |
| 2026-04-28 00:20 | 14.88196 | 36.30425 | 39828 ft | 490 kts | 2° |
| 2026-04-28 00:21 | 14.94970 | 36.30846 | 39828 ft | 490 kts | 2° |
| 2026-04-28 00:21 | 15.01790 | 36.31270 | 39824 ft | 490 kts | 2° |
| 2026-04-28 00:22 | 15.08606 | 36.31694 | 39826 ft | 490 kts | 2° |
| 2026-04-28 00:22 | 15.15387 | 36.32116 | 39828 ft | 490 kts | 2° |
| 2026-04-28 00:23 | 15.22211 | 36.32541 | 39827 ft | 490 kts | 2° |
| 2026-04-28 00:23 | 15.28996 | 36.32963 | 39825 ft | 490 kts | 2° |
| 2026-04-28 00:24 | 15.35819 | 36.33389 | 39828 ft | 490 kts | 2° |
| 2026-04-28 00:24 | 15.42612 | 36.33744 | 39825 ft | 490 kts | 359° |
| 2026-04-28 00:25 | 15.49401 | 36.33763 | 39830 ft | 490 kts | 358° |
| 2026-04-28 00:25 | 15.56219 | 36.33712 | 39828 ft | 490 kts | 358° |
| 2026-04-28 00:26 | 15.63014 | 36.33678 | 39830 ft | 490 kts | 358° |
| 2026-04-28 00:26 | 15.69818 | 36.33664 | 39828 ft | 490 kts | 358° |
| 2026-04-28 00:27 | 15.76653 | 36.33658 | 39830 ft | 490 kts | 358° |
| 2026-04-28 00:27 | 15.83451 | 36.33653 | 39831 ft | 490 kts | 358° |
| 2026-04-28 00:28 | 15.90271 | 36.33646 | 39831 ft | 490 kts | 358° |
| 2026-04-28 00:28 | 15.97116 | 36.33638 | 39831 ft | 490 kts | 358° |
| 2026-04-28 00:29 | 16.03910 | 36.33631 | 39833 ft | 490 kts | 358° |
| 2026-04-28 00:29 | 16.10709 | 36.33623 | 39831 ft | 491 kts | 358° |
| 2026-04-28 00:30 | 16.17554 | 36.33616 | 39831 ft | 491 kts | 358° |
| 2026-04-28 00:30 | 16.23241 | 36.33609 | 39830 ft | 491 kts | 358° |
| 2026-04-28 00:31 | 16.30079 | 36.33602 | 39830 ft | 491 kts | 358° |
| 2026-04-28 00:31 | 16.36934 | 36.33594 | 39829 ft | 491 kts | 358° |
| 2026-04-28 00:32 | 16.43730 | 36.33587 | 39834 ft | 492 kts | 358° |
| 2026-04-28 00:32 | 16.50601 | 36.33579 | 39834 ft | 492 kts | 358° |
| 2026-04-28 00:33 | 16.57424 | 36.33572 | 39834 ft | 492 kts | 358° |
| 2026-04-28 00:33 | 16.64285 | 36.33564 | 39833 ft | 492 kts | 358° |
| 2026-04-28 00:34 | 16.71105 | 36.33556 | 39836 ft | 492 kts | 358° |
| 2026-04-28 00:34 | 16.77970 | 36.33549 | 39840 ft | 492 kts | 358° |
| 2026-04-28 00:35 | 16.84800 | 36.33541 | 39840 ft | 493 kts | 358° |
| 2026-04-28 00:35 | 16.91671 | 36.33534 | 39837 ft | 493 kts | 358° |
| 2026-04-28 00:36 | 16.98532 | 36.33526 | 39843 ft | 493 kts | 358° |
| 2026-04-28 00:36 | 17.05366 | 36.33518 | 39845 ft | 493 kts | 358° |
| 2026-04-28 00:37 | 17.12230 | 36.33511 | 39845 ft | 493 kts | 357° |
| 2026-04-28 00:37 | 17.19120 | 36.33503 | 39845 ft | 493 kts | 357° |
| 2026-04-28 00:38 | 17.25950 | 36.33496 | 39848 ft | 493 kts | 357° |
| 2026-04-28 00:38 | 17.32824 | 36.33488 | 39846 ft | 494 kts | 357° |
| 2026-04-28 00:39 | 17.39706 | 36.33480 | 39854 ft | 494 kts | 357° |
| 2026-04-28 00:39 | 17.46589 | 36.33472 | 39850 ft | 494 kts | 357° |
| 2026-04-28 00:40 | 17.53441 | 36.33464 | 39862 ft | 495 kts | 357° |
| 2026-04-28 00:40 | 17.60348 | 36.33457 | 39859 ft | 495 kts | 357° |
| 2026-04-28 00:41 | 17.67251 | 36.33449 | 39861 ft | 495 kts | 357° |
| 2026-04-28 00:41 | 17.74109 | 36.33441 | 39865 ft | 496 kts | 357° |
| 2026-04-28 00:42 | 17.81011 | 36.33434 | 39865 ft | 496 kts | 357° |
| 2026-04-28 00:42 | 17.87943 | 36.33426 | 39867 ft | 496 kts | 357° |
| 2026-04-28 00:43 | 17.94822 | 36.33418 | 39872 ft | 497 kts | 357° |
| 2026-04-28 00:43 | 18.01742 | 36.33411 | 39872 ft | 497 kts | 357° |
| 2026-04-28 00:44 | 18.08664 | 36.33403 | 39873 ft | 497 kts | 356° |
| 2026-04-28 00:44 | 18.15559 | 36.33395 | 39875 ft | 498 kts | 356° |
| 2026-04-28 00:45 | 18.22491 | 36.33387 | 39873 ft | 498 kts | 356° |
| 2026-04-28 00:45 | 18.29433 | 36.33379 | 39876 ft | 498 kts | 356° |
| 2026-04-28 00:46 | 18.36319 | 36.33371 | 39879 ft | 498 kts | 356° |
| 2026-04-28 00:46 | 18.43277 | 36.33364 | 39881 ft | 498 kts | 356° |
| 2026-04-28 00:47 | 18.50214 | 36.33356 | 39883 ft | 499 kts | 356° |
| 2026-04-28 00:47 | 18.57118 | 36.33348 | 39890 ft | 499 kts | 356° |
| 2026-04-28 00:48 | 18.64083 | 36.33340 | 39891 ft | 499 kts | 356° |
| 2026-04-28 00:48 | 18.71029 | 36.33332 | 39901 ft | 499 kts | 356° |
| 2026-04-28 00:49 | 18.77939 | 36.33325 | 39899 ft | 499 kts | 356° |
| 2026-04-28 00:49 | 18.84910 | 36.33316 | 39902 ft | 500 kts | 356° |
| 2026-04-28 00:50 | 18.91833 | 36.33309 | 39905 ft | 500 kts | 356° |
| 2026-04-28 00:50 | 18.98791 | 36.33301 | 39908 ft | 500 kts | 356° |
| 2026-04-28 00:51 | 19.05764 | 36.33292 | 39920 ft | 501 kts | 356° |
| 2026-04-28 00:51 | 19.12736 | 36.33285 | 39911 ft | 501 kts | 356° |
| 2026-04-28 00:52 | 19.19678 | 36.33277 | 39908 ft | 501 kts | 355° |
| 2026-04-28 00:52 | 19.26681 | 36.33269 | 39912 ft | 501 kts | 355° |
| 2026-04-28 00:53 | 19.33671 | 36.33261 | 39912 ft | 501 kts | 355° |
| 2026-04-28 00:53 | 19.40630 | 36.33253 | 39914 ft | 502 kts | 355° |
| 2026-04-28 00:54 | 19.47587 | 36.33245 | 39913 ft | 502 kts | 355° |
| 2026-04-28 00:54 | 19.54581 | 36.33237 | 39907 ft | 502 kts | 355° |
| 2026-04-28 00:55 | 19.61574 | 36.33229 | 39910 ft | 502 kts | 355° |
| 2026-04-28 00:55 | 19.68535 | 36.33221 | 39909 ft | 502 kts | 355° |
| 2026-04-28 00:56 | 19.75537 | 36.33213 | 39909 ft | 502 kts | 355° |
| 2026-04-28 00:56 | 19.82537 | 36.33205 | 39911 ft | 502 kts | 355° |
| 2026-04-28 00:57 | 19.89511 | 36.33197 | 39901 ft | 503 kts | 355° |
| 2026-04-28 00:57 | 19.96524 | 36.33189 | 39916 ft | 503 kts | 355° |
| 2026-04-28 00:58 | 20.03487 | 36.33181 | 39902 ft | 503 kts | 355° |
| 2026-04-28 00:58 | 20.10503 | 36.33173 | 39910 ft | 503 kts | 355° |
| 2026-04-28 00:59 | 20.17517 | 36.33164 | 39903 ft | 504 kts | 355° |
| 2026-04-28 00:59 | 20.24546 | 36.33156 | 39906 ft | 504 kts | 355° |
| 2026-04-28 01:00 | 20.31532 | 36.33148 | 39902 ft | 505 kts | 355° |
| 2026-04-28 01:00 | 20.38569 | 36.33140 | 39906 ft | 505 kts | 355° |
| 2026-04-28 01:01 | 20.45577 | 36.33132 | 39905 ft | 506 kts | 355° |
| 2026-04-28 01:01 | 20.52633 | 36.33124 | 39909 ft | 507 kts | 354° |
| 2026-04-28 01:02 | 20.59708 | 36.33116 | 39903 ft | 507 kts | 354° |
| 2026-04-28 01:02 | 20.66728 | 36.33108 | 39906 ft | 507 kts | 354° |
| 2026-04-28 01:03 | 20.73608 | 36.32108 | 39916 ft | 492 kts | 336° |
| 2026-04-28 01:03 | 20.79727 | 36.29075 | 39910 ft | 479 kts | 322° |
| 2026-04-28 01:04 | 20.85300 | 36.25154 | 39909 ft | 479 kts | 321° |
| 2026-04-28 01:04 | 20.90789 | 36.21263 | 39909 ft | 480 kts | 321° |
| 2026-04-28 01:05 | 20.96400 | 36.17343 | 39910 ft | 481 kts | 322° |
| 2026-04-28 01:05 | 21.02028 | 36.13442 | 39918 ft | 481 kts | 322° |
| 2026-04-28 01:06 | 21.07629 | 36.09565 | 39913 ft | 482 kts | 321° |
| 2026-04-28 01:06 | 21.13273 | 36.05651 | 39911 ft | 482 kts | 321° |
| 2026-04-28 01:07 | 21.18890 | 36.01750 | 39903 ft | 481 kts | 321° |
| 2026-04-28 01:07 | 21.24473 | 35.97869 | 39912 ft | 479 kts | 321° |
| 2026-04-28 01:08 | 21.30065 | 35.93978 | 39914 ft | 478 kts | 321° |
| 2026-04-28 01:08 | 21.35647 | 35.90090 | 39920 ft | 477 kts | 321° |
| 2026-04-28 01:09 | 21.41191 | 35.86225 | 39914 ft | 477 kts | 321° |
| 2026-04-28 01:09 | 21.46756 | 35.82341 | 39915 ft | 476 kts | 321° |
| 2026-04-28 01:10 | 21.52277 | 35.78485 | 39920 ft | 475 kts | 321° |
| 2026-04-28 01:10 | 21.57814 | 35.74614 | 39921 ft | 475 kts | 321° |
| 2026-04-28 01:11 | 21.63323 | 35.70760 | 39919 ft | 474 kts | 321° |
| 2026-04-28 01:11 | 21.68849 | 35.66889 | 39929 ft | 474 kts | 321° |
| 2026-04-28 01:12 | 21.74383 | 35.63009 | 39932 ft | 474 kts | 321° |
| 2026-04-28 01:12 | 21.79822 | 35.59193 | 39939 ft | 473 kts | 321° |
| 2026-04-28 01:13 | 21.85335 | 35.55321 | 39930 ft | 472 kts | 321° |
| 2026-04-28 01:13 | 21.93586 | 35.49518 | 39939 ft | 471 kts | 321° |
| 2026-04-28 01:14 | 21.99082 | 35.45649 | 39963 ft | 471 kts | 321° |
| 2026-04-28 01:14 | 22.04560 | 35.41818 | 39950 ft | 471 kts | 321° |
| 2026-04-28 01:15 | 22.10086 | 35.37986 | 39957 ft | 471 kts | 321° |
| 2026-04-28 01:15 | 22.15599 | 35.34159 | 39954 ft | 470 kts | 321° |
| 2026-04-28 01:16 | 22.21064 | 35.30356 | 39954 ft | 470 kts | 321° |
| 2026-04-28 01:16 | 22.26566 | 35.26518 | 39957 ft | 470 kts | 321° |
| 2026-04-28 01:17 | 22.32057 | 35.22687 | 39951 ft | 470 kts | 321° |
| 2026-04-28 01:17 | 22.37513 | 35.18876 | 39947 ft | 469 kts | 320° |
| 2026-04-28 01:18 | 22.42988 | 35.15048 | 39957 ft | 468 kts | 320° |
| 2026-04-28 01:18 | 22.48459 | 35.11219 | 39942 ft | 468 kts | 320° |
| 2026-04-28 01:19 | 22.52971 | 35.08058 | 39954 ft | 467 kts | 320° |
| 2026-04-28 01:19 | 22.59353 | 35.03584 | 39959 ft | 466 kts | 320° |
| 2026-04-28 01:20 | 22.64762 | 34.99788 | 39972 ft | 465 kts | 320° |
| 2026-04-28 01:20 | 22.69281 | 34.96614 | 39947 ft | 464 kts | 320° |
| 2026-04-28 01:21 | 22.75582 | 34.92184 | 39947 ft | 462 kts | 320° |
| 2026-04-28 01:21 | 22.80107 | 34.88999 | 39951 ft | 462 kts | 320° |
| 2026-04-28 01:22 | 22.85472 | 34.85218 | 39950 ft | 462 kts | 320° |
| 2026-04-28 01:22 | 22.90888 | 34.81399 | 39946 ft | 462 kts | 320° |
| 2026-04-28 01:23 | 22.96244 | 34.77620 | 39947 ft | 461 kts | 320° |
| 2026-04-28 01:23 | 23.01620 | 34.73822 | 39948 ft | 460 kts | 320° |
| 2026-04-28 01:24 | 23.06958 | 34.70048 | 39953 ft | 459 kts | 319° |
| 2026-04-28 01:24 | 23.12316 | 34.66255 | 39956 ft | 458 kts | 319° |
| 2026-04-28 01:25 | 23.17667 | 34.62463 | 39947 ft | 458 kts | 319° |
| 2026-04-28 01:25 | 23.22880 | 34.58765 | 39955 ft | 458 kts | 319° |
| 2026-04-28 01:26 | 23.28232 | 34.54967 | 39959 ft | 458 kts | 319° |
| 2026-04-28 01:26 | 23.33429 | 34.51273 | 39959 ft | 458 kts | 319° |
| 2026-04-28 01:27 | 23.38727 | 34.47504 | 39955 ft | 458 kts | 319° |
| 2026-04-28 01:27 | 23.44067 | 34.43704 | 39957 ft | 457 kts | 319° |
| 2026-04-28 01:28 | 23.49387 | 34.39913 | 39955 ft | 456 kts | 319° |
| 2026-04-28 01:28 | 23.54670 | 34.36144 | 39956 ft | 456 kts | 319° |
| 2026-04-28 01:29 | 23.59980 | 34.32351 | 39962 ft | 456 kts | 319° |
| 2026-04-28 01:29 | 23.65303 | 34.28546 | 39958 ft | 457 kts | 319° |
| 2026-04-28 01:30 | 23.70604 | 34.24754 | 39960 ft | 457 kts | 318° |
| 2026-04-28 01:30 | 23.75939 | 34.20932 | 39958 ft | 457 kts | 318° |
| 2026-04-28 01:31 | 23.81216 | 34.17150 | 39970 ft | 457 kts | 318° |
| 2026-04-28 01:31 | 23.86546 | 34.13345 | 39953 ft | 457 kts | 319° |
| 2026-04-28 01:32 | 23.91882 | 34.09552 | 39969 ft | 458 kts | 318° |
| 2026-04-28 01:32 | 23.97230 | 34.05745 | 39963 ft | 458 kts | 318° |
| 2026-04-28 01:33 | 24.02537 | 34.01960 | 39964 ft | 457 kts | 318° |
| 2026-04-28 01:33 | 24.07879 | 33.98145 | 39961 ft | 457 kts | 318° |
| 2026-04-28 01:34 | 24.13180 | 33.94355 | 39962 ft | 457 kts | 318° |
| 2026-04-28 01:34 | 24.18514 | 33.90537 | 39965 ft | 457 kts | 318° |
| 2026-04-28 01:35 | 24.23817 | 33.86738 | 39963 ft | 457 kts | 318° |
| 2026-04-28 01:35 | 24.29148 | 33.82916 | 39959 ft | 456 kts | 317° |
| 2026-04-28 01:36 | 24.34460 | 33.79104 | 39966 ft | 455 kts | 317° |
| 2026-04-28 01:36 | 24.39736 | 33.75311 | 39962 ft | 455 kts | 317° |
| 2026-04-28 01:37 | 24.45039 | 33.71497 | 39969 ft | 455 kts | 317° |
| 2026-04-28 01:37 | 24.50311 | 33.67700 | 39964 ft | 455 kts | 317° |
| 2026-04-28 01:38 | 24.55621 | 33.63873 | 39969 ft | 455 kts | 317° |
| 2026-04-28 01:38 | 24.60910 | 33.60056 | 39973 ft | 455 kts | 317° |
| 2026-04-28 01:39 | 24.66185 | 33.56247 | 39961 ft | 454 kts | 317° |
| 2026-04-28 01:39 | 24.71474 | 33.52423 | 39958 ft | 454 kts | 317° |
| 2026-04-28 01:40 | 24.76752 | 33.48604 | 39963 ft | 453 kts | 317° |
| 2026-04-28 01:40 | 24.81983 | 33.44812 | 39961 ft | 453 kts | 317° |
| 2026-04-28 01:41 | 24.87257 | 33.40987 | 39966 ft | 453 kts | 317° |
| 2026-04-28 01:41 | 24.92527 | 33.37160 | 39966 ft | 453 kts | 317° |
| 2026-04-28 01:42 | 24.97763 | 33.33355 | 39963 ft | 453 kts | 317° |
| 2026-04-28 01:42 | 25.03035 | 33.29519 | 39963 ft | 453 kts | 317° |
| 2026-04-28 01:43 | 25.08302 | 33.25683 | 39964 ft | 452 kts | 317° |
| 2026-04-28 01:43 | 25.13524 | 33.21876 | 39966 ft | 452 kts | 317° |
| 2026-04-28 01:44 | 25.18778 | 33.18040 | 39961 ft | 452 kts | 317° |
| 2026-04-28 01:44 | 25.24036 | 33.14200 | 39962 ft | 452 kts | 317° |
| 2026-04-28 01:45 | 25.29253 | 33.10392 | 39965 ft | 452 kts | 317° |
| 2026-04-28 01:45 | 25.34525 | 33.06542 | 39965 ft | 453 kts | 317° |
| 2026-04-28 01:46 | 25.39759 | 33.02714 | 39962 ft | 453 kts | 317° |
| 2026-04-28 01:46 | 25.45012 | 32.98868 | 39956 ft | 452 kts | 317° |
| 2026-04-28 01:47 | 25.50240 | 32.95036 | 39963 ft | 452 kts | 317° |
| 2026-04-28 01:47 | 25.55482 | 32.91188 | 39962 ft | 452 kts | 317° |
| 2026-04-28 01:48 | 25.60710 | 32.87347 | 39955 ft | 452 kts | 317° |
| 2026-04-28 01:48 | 25.65963 | 32.83484 | 39950 ft | 452 kts | 317° |
| 2026-04-28 01:49 | 25.71203 | 32.79619 | 39930 ft | 450 kts | 315° |
| 2026-04-28 01:49 | 25.75908 | 32.75264 | 39937 ft | 438 kts | 307° |
| 2026-04-28 01:50 | 25.79955 | 32.70283 | 39962 ft | 431 kts | 302° |
| 2026-04-28 01:50 | 25.83783 | 32.65141 | 39948 ft | 431 kts | 302° |
| 2026-04-28 01:51 | 25.87588 | 32.60023 | 39973 ft | 431 kts | 302° |
| 2026-04-28 01:51 | 25.91434 | 32.54872 | 39966 ft | 431 kts | 302° |
| 2026-04-28 01:52 | 25.95249 | 32.49772 | 39974 ft | 431 kts | 302° |
| 2026-04-28 01:52 | 25.99086 | 32.44641 | 39975 ft | 430 kts | 302° |
| 2026-04-28 01:53 | 26.02893 | 32.39543 | 39987 ft | 431 kts | 302° |
| 2026-04-28 01:53 | 26.06727 | 32.34400 | 39994 ft | 431 kts | 302° |
| 2026-04-28 01:54 | 26.10558 | 32.29256 | 40001 ft | 432 kts | 302° |
| 2026-04-28 01:54 | 26.14398 | 32.24096 | 40000 ft | 432 kts | 302° |
| 2026-04-28 01:55 | 26.18205 | 32.18975 | 40006 ft | 431 kts | 302° |
| 2026-04-28 01:55 | 26.22024 | 32.13831 | 40001 ft | 431 kts | 302° |
| 2026-04-28 01:56 | 26.25849 | 32.08674 | 40006 ft | 430 kts | 302° |
| 2026-04-28 01:56 | 26.29630 | 32.03568 | 40010 ft | 429 kts | 302° |
| 2026-04-28 01:57 | 26.33448 | 31.98407 | 40018 ft | 430 kts | 302° |
| 2026-04-28 01:57 | 26.37241 | 31.93273 | 40022 ft | 430 kts | 302° |
| 2026-04-28 01:58 | 26.41025 | 31.88149 | 40022 ft | 430 kts | 302° |
| 2026-04-28 01:58 | 26.44828 | 31.82991 | 40029 ft | 430 kts | 302° |
| 2026-04-28 01:59 | 26.48626 | 31.77834 | 40033 ft | 430 kts | 302° |
| 2026-04-28 01:59 | 26.52436 | 31.72656 | 40025 ft | 430 kts | 302° |
| 2026-04-28 02:00 | 26.56205 | 31.67526 | 40032 ft | 430 kts | 302° |
| 2026-04-28 02:00 | 26.60003 | 31.62351 | 40039 ft | 429 kts | 302° |
| 2026-04-28 02:01 | 26.63790 | 31.57186 | 40042 ft | 429 kts | 302° |
| 2026-04-28 02:01 | 26.67552 | 31.52047 | 40042 ft | 429 kts | 302° |
| 2026-04-28 02:02 | 26.71346 | 31.46860 | 40046 ft | 429 kts | 302° |
| 2026-04-28 02:02 | 26.75107 | 31.41711 | 40047 ft | 429 kts | 302° |
| 2026-04-28 02:03 | 26.78888 | 31.36530 | 40055 ft | 429 kts | 302° |
| 2026-04-28 02:03 | 26.82664 | 31.31350 | 40053 ft | 429 kts | 302° |
| 2026-04-28 02:04 | 26.86410 | 31.26203 | 40062 ft | 428 kts | 302° |
| 2026-04-28 02:04 | 26.90187 | 31.21009 | 40070 ft | 428 kts | 302° |
| 2026-04-28 02:05 | 26.93931 | 31.15852 | 40071 ft | 428 kts | 302° |
| 2026-04-28 02:05 | 26.97695 | 31.10664 | 40075 ft | 428 kts | 302° |
| 2026-04-28 02:06 | 27.01523 | 31.05532 | 40081 ft | 432 kts | 306° |
| 2026-04-28 02:06 | 27.05949 | 31.00940 | 40082 ft | 440 kts | 313° |
| 2026-04-28 02:07 | 27.10960 | 30.96860 | 40081 ft | 444 kts | 316° |
| 2026-04-28 02:07 | 27.16011 | 30.92893 | 40082 ft | 445 kts | 316° |
| 2026-04-28 02:08 | 27.21079 | 30.88893 | 40082 ft | 444 kts | 316° |
| 2026-04-28 02:08 | 27.26126 | 30.84881 | 40075 ft | 444 kts | 315° |
| 2026-04-28 02:09 | 27.31153 | 30.80869 | 40072 ft | 443 kts | 315° |
| 2026-04-28 02:09 | 27.36144 | 30.76879 | 40074 ft | 443 kts | 315° |
| 2026-04-28 02:10 | 27.41151 | 30.72871 | 40073 ft | 443 kts | 315° |
| 2026-04-28 02:10 | 27.46178 | 30.68844 | 40072 ft | 443 kts | 315° |
| 2026-04-28 02:11 | 27.50388 | 30.65467 | 40069 ft | 443 kts | 315° |
| 2026-04-28 02:11 | 27.55390 | 30.61453 | 40073 ft | 443 kts | 315° |
| 2026-04-28 02:12 | 27.60418 | 30.57413 | 40066 ft | 443 kts | 316° |
| 2026-04-28 02:12 | 27.65415 | 30.53393 | 40067 ft | 443 kts | 316° |
| 2026-04-28 02:13 | 27.70434 | 30.49350 | 40068 ft | 443 kts | 316° |
| 2026-04-28 02:13 | 27.75430 | 30.45321 | 40069 ft | 443 kts | 316° |
| 2026-04-28 02:14 | 27.80449 | 30.41269 | 40069 ft | 443 kts | 316° |
| 2026-04-28 02:14 | 27.85442 | 30.37234 | 40069 ft | 442 kts | 316° |
| 2026-04-28 02:15 | 27.92953 | 30.31155 | 40059 ft | 443 kts | 316° |
| 2026-04-28 02:16 | 27.97968 | 30.27089 | 40065 ft | 443 kts | 316° |
| 2026-04-28 02:16 | 28.02956 | 30.23041 | 40070 ft | 443 kts | 316° |
| 2026-04-28 02:17 | 28.07982 | 30.18957 | 40072 ft | 443 kts | 316° |
| 2026-04-28 02:17 | 28.12967 | 30.14902 | 40067 ft | 443 kts | 316° |
| 2026-04-28 02:18 | 28.17986 | 30.10815 | 40069 ft | 443 kts | 316° |
| 2026-04-28 02:18 | 28.22994 | 30.06732 | 40058 ft | 443 kts | 316° |
| 2026-04-28 02:19 | 28.27965 | 30.02674 | 40054 ft | 443 kts | 316° |
| 2026-04-28 02:19 | 28.32967 | 29.98586 | 40062 ft | 443 kts | 316° |
| 2026-04-28 02:20 | 28.37974 | 29.94489 | 40055 ft | 444 kts | 316° |
| 2026-04-28 02:20 | 28.42998 | 29.90372 | 40059 ft | 444 kts | 316° |
| 2026-04-28 02:21 | 28.47986 | 29.86281 | 40058 ft | 445 kts | 316° |
| 2026-04-28 02:21 | 28.53008 | 29.82158 | 40056 ft | 445 kts | 316° |
| 2026-04-28 02:22 | 28.58031 | 29.78029 | 40058 ft | 444 kts | 316° |
| 2026-04-28 02:22 | 28.63000 | 29.73939 | 40051 ft | 443 kts | 316° |
| 2026-04-28 02:23 | 28.67998 | 29.69819 | 40058 ft | 443 kts | 316° |
| 2026-04-28 02:23 | 28.73005 | 29.65686 | 40058 ft | 444 kts | 316° |
| 2026-04-28 02:24 | 28.77988 | 29.61569 | 40054 ft | 445 kts | 316° |
| 2026-04-28 02:24 | 28.83018 | 29.57408 | 40053 ft | 445 kts | 316° |
| 2026-04-28 02:25 | 28.88000 | 29.53283 | 40052 ft | 446 kts | 316° |
| 2026-04-28 02:25 | 28.93031 | 29.49112 | 40047 ft | 445 kts | 316° |
| 2026-04-28 02:26 | 28.98040 | 29.44953 | 40047 ft | 445 kts | 316° |
| 2026-04-28 02:26 | 29.03054 | 29.40785 | 40043 ft | 445 kts | 316° |
| 2026-04-28 02:27 | 29.08032 | 29.36642 | 40055 ft | 445 kts | 317° |
| 2026-04-28 02:27 | 29.13046 | 29.32461 | 40044 ft | 445 kts | 316° |
| 2026-04-28 02:28 | 29.18009 | 29.28205 | 40048 ft | 445 kts | 316° |
| 2026-04-28 02:28 | 29.22928 | 29.23939 | 40043 ft | 445 kts | 316° |
| 2026-04-28 02:29 | 29.27885 | 29.19648 | 40045 ft | 446 kts | 316° |
| 2026-04-28 02:29 | 29.32810 | 29.15390 | 40044 ft | 446 kts | 316° |
| 2026-04-28 02:30 | 29.37766 | 29.11099 | 40039 ft | 445 kts | 316° |
| 2026-04-28 02:30 | 29.42709 | 29.06814 | 40040 ft | 445 kts | 316° |
| 2026-04-28 02:31 | 29.47643 | 29.02506 | 40041 ft | 445 kts | 316° |
| 2026-04-28 02:31 | 29.52525 | 28.98228 | 40047 ft | 445 kts | 316° |
| 2026-04-28 02:32 | 29.57432 | 28.93924 | 40038 ft | 446 kts | 316° |
| 2026-04-28 02:32 | 29.62369 | 28.89592 | 40042 ft | 446 kts | 316° |
| 2026-04-28 02:33 | 29.67316 | 28.85245 | 40039 ft | 447 kts | 316° |
| 2026-04-28 02:33 | 29.72255 | 28.80900 | 40037 ft | 446 kts | 316° |
| 2026-04-28 02:34 | 29.77163 | 28.76576 | 40039 ft | 446 kts | 316° |
| 2026-04-28 02:34 | 29.82090 | 28.72231 | 40044 ft | 446 kts | 316° |
| 2026-04-28 02:35 | 29.87027 | 28.67871 | 40047 ft | 446 kts | 316° |
| 2026-04-28 02:35 | 29.91934 | 28.63531 | 40038 ft | 447 kts | 316° |
| 2026-04-28 02:36 | 29.96864 | 28.59166 | 40040 ft | 447 kts | 316° |
| 2026-04-28 02:36 | 30.01808 | 28.54783 | 40040 ft | 447 kts | 316° |
| 2026-04-28 02:37 | 30.06738 | 28.50407 | 40039 ft | 447 kts | 316° |
| 2026-04-28 02:37 | 30.11686 | 28.46009 | 40040 ft | 447 kts | 316° |
| 2026-04-28 02:38 | 30.16620 | 28.41618 | 40047 ft | 448 kts | 316° |
| 2026-04-28 02:38 | 30.21530 | 28.37242 | 40049 ft | 448 kts | 316° |
| 2026-04-28 02:39 | 30.26466 | 28.32838 | 40048 ft | 448 kts | 316° |
| 2026-04-28 02:39 | 30.31411 | 28.28420 | 40031 ft | 448 kts | 316° |
| 2026-04-28 02:40 | 30.36316 | 28.24032 | 40054 ft | 448 kts | 316° |
| 2026-04-28 02:40 | 30.41265 | 28.19599 | 40061 ft | 448 kts | 316° |
| 2026-04-28 02:41 | 30.46182 | 28.15187 | 40054 ft | 449 kts | 316° |
| 2026-04-28 02:41 | 30.51131 | 28.10742 | 40053 ft | 449 kts | 316° |
| 2026-04-28 02:42 | 30.56045 | 28.06324 | 40055 ft | 449 kts | 316° |
| 2026-04-28 02:42 | 30.61008 | 28.01854 | 40054 ft | 449 kts | 316° |
| 2026-04-28 02:43 | 30.65918 | 27.97427 | 40058 ft | 449 kts | 316° |
| 2026-04-28 02:43 | 30.70825 | 27.92995 | 40061 ft | 449 kts | 316° |
| 2026-04-28 02:44 | 30.75737 | 27.88555 | 40057 ft | 449 kts | 317° |
| 2026-04-28 02:44 | 30.80669 | 27.84089 | 40065 ft | 449 kts | 317° |
| 2026-04-28 02:45 | 30.85606 | 27.79614 | 40056 ft | 449 kts | 317° |
| 2026-04-28 02:45 | 30.90535 | 27.75139 | 40061 ft | 449 kts | 317° |
| 2026-04-28 02:46 | 30.95437 | 27.70683 | 40064 ft | 449 kts | 317° |
| 2026-04-28 02:46 | 31.00330 | 27.66228 | 40064 ft | 449 kts | 317° |
| 2026-04-28 02:47 | 31.05256 | 27.61738 | 40062 ft | 449 kts | 317° |
| 2026-04-28 02:47 | 31.10148 | 27.57243 | 40063 ft | 448 kts | 314° |
| 2026-04-28 02:48 | 31.14486 | 27.52097 | 40074 ft | 442 kts | 306° |
| 2026-04-28 02:48 | 31.18110 | 27.46325 | 40070 ft | 440 kts | 301° |
| 2026-04-28 02:49 | 31.21510 | 27.40371 | 40058 ft | 440 kts | 301° |
| 2026-04-28 02:49 | 31.24910 | 27.34464 | 40053 ft | 440 kts | 301° |
| 2026-04-28 02:50 | 31.28341 | 27.28537 | 40048 ft | 439 kts | 301° |
| 2026-04-28 02:50 | 31.32276 | 27.23024 | 40059 ft | 445 kts | 311° |
| 2026-04-28 02:51 | 31.37035 | 27.18329 | 40048 ft | 452 kts | 321° |
| 2026-04-28 02:51 | 31.42312 | 27.14348 | 40057 ft | 453 kts | 322° |
| 2026-04-28 02:52 | 31.47672 | 27.10424 | 40058 ft | 454 kts | 322° |
| 2026-04-28 02:52 | 31.52983 | 27.06496 | 40060 ft | 453 kts | 322° |
| 2026-04-28 02:53 | 31.58321 | 27.02504 | 40062 ft | 453 kts | 322° |
| 2026-04-28 02:53 | 31.63602 | 26.98535 | 40058 ft | 453 kts | 322° |
| 2026-04-28 02:54 | 31.68909 | 26.94538 | 40058 ft | 453 kts | 322° |
| 2026-04-28 02:54 | 31.74212 | 26.90541 | 40057 ft | 453 kts | 322° |
| 2026-04-28 02:55 | 31.79528 | 26.86529 | 40057 ft | 453 kts | 322° |
| 2026-04-28 02:55 | 31.84816 | 26.82533 | 40054 ft | 453 kts | 322° |
| 2026-04-28 02:56 | 31.90128 | 26.78515 | 40045 ft | 453 kts | 322° |
| 2026-04-28 02:56 | 31.95411 | 26.74512 | 40048 ft | 453 kts | 322° |
| 2026-04-28 02:57 | 32.00731 | 26.70475 | 40051 ft | 453 kts | 322° |
| 2026-04-28 02:57 | 32.06007 | 26.66466 | 40047 ft | 453 kts | 322° |
| 2026-04-28 02:58 | 32.11303 | 26.62436 | 40041 ft | 453 kts | 322° |
| 2026-04-28 02:58 | 32.16611 | 26.58392 | 40050 ft | 453 kts | 322° |
| 2026-04-28 02:59 | 32.21895 | 26.54360 | 40046 ft | 454 kts | 322° |
| 2026-04-28 02:59 | 32.27200 | 26.50306 | 40050 ft | 454 kts | 322° |
| 2026-04-28 03:00 | 32.32483 | 26.46264 | 40055 ft | 454 kts | 322° |
| 2026-04-28 03:00 | 32.37787 | 26.42200 | 40049 ft | 454 kts | 322° |
| 2026-04-28 03:01 | 32.42195 | 26.38818 | 40047 ft | 454 kts | 322° |
| 2026-04-28 03:01 | 32.47509 | 26.34735 | 40050 ft | 454 kts | 322° |
| 2026-04-28 03:02 | 32.52781 | 26.30679 | 40041 ft | 454 kts | 322° |
| 2026-04-28 03:02 | 32.58089 | 26.26590 | 40047 ft | 453 kts | 322° |
| 2026-04-28 03:03 | 32.63343 | 26.22536 | 40051 ft | 453 kts | 322° |
| 2026-04-28 03:03 | 32.68640 | 26.18443 | 40051 ft | 454 kts | 322° |
| 2026-04-28 03:04 | 32.73923 | 26.14355 | 40046 ft | 454 kts | 322° |
| 2026-04-28 03:04 | 32.79226 | 26.10246 | 40046 ft | 454 kts | 322° |
| 2026-04-28 03:05 | 32.84534 | 26.06127 | 40045 ft | 454 kts | 322° |
| 2026-04-28 03:05 | 32.89786 | 26.02046 | 40045 ft | 453 kts | 322° |
| 2026-04-28 03:06 | 32.95076 | 25.97929 | 40045 ft | 453 kts | 322° |
| 2026-04-28 03:06 | 33.00356 | 25.93814 | 40046 ft | 453 kts | 322° |
| 2026-04-28 03:07 | 33.05641 | 25.89689 | 40045 ft | 453 kts | 322° |
| 2026-04-28 03:07 | 33.10893 | 25.85583 | 40052 ft | 453 kts | 322° |
| 2026-04-28 03:08 | 33.16181 | 25.81444 | 40035 ft | 453 kts | 322° |
| 2026-04-28 03:08 | 33.21464 | 25.77302 | 40036 ft | 453 kts | 322° |
| 2026-04-28 03:09 | 33.26704 | 25.73188 | 40040 ft | 453 kts | 322° |
| 2026-04-28 03:09 | 33.31983 | 25.69038 | 40042 ft | 453 kts | 322° |
| 2026-04-28 03:10 | 33.37233 | 25.64904 | 40039 ft | 453 kts | 322° |
| 2026-04-28 03:10 | 33.42504 | 25.60748 | 40037 ft | 453 kts | 322° |
| 2026-04-28 03:11 | 33.47740 | 25.56613 | 40039 ft | 453 kts | 322° |
| 2026-04-28 03:11 | 33.53013 | 25.52442 | 40038 ft | 453 kts | 322° |
| 2026-04-28 03:12 | 33.58260 | 25.48286 | 40037 ft | 453 kts | 322° |
| 2026-04-28 03:12 | 33.63521 | 25.44113 | 40035 ft | 453 kts | 322° |
| 2026-04-28 03:13 | 33.68783 | 25.39933 | 40034 ft | 453 kts | 322° |
| 2026-04-28 03:13 | 33.74007 | 25.35777 | 40035 ft | 452 kts | 322° |
| 2026-04-28 03:14 | 33.79257 | 25.31593 | 40028 ft | 452 kts | 322° |
| 2026-04-28 03:14 | 33.84473 | 25.27430 | 40032 ft | 452 kts | 322° |
| 2026-04-28 03:15 | 33.89718 | 25.23238 | 40031 ft | 451 kts | 322° |
| 2026-04-28 03:15 | 33.94954 | 25.19048 | 40032 ft | 452 kts | 322° |
| 2026-04-28 03:16 | 33.99756 | 25.14315 | 40039 ft | 446 kts | 312° |
| 2026-04-28 03:16 | 34.03861 | 25.08730 | 40033 ft | 443 kts | 304° |
| 2026-04-28 03:17 | 34.07485 | 25.02715 | 40032 ft | 443 kts | 303° |
| 2026-04-28 03:17 | 34.12845 | 24.93658 | 40027 ft | 443 kts | 303° |
| 2026-04-28 03:18 | 34.16446 | 24.87616 | 40027 ft | 443 kts | 303° |
| 2026-04-28 03:18 | 34.20052 | 24.81580 | 40026 ft | 442 kts | 303° |
| 2026-04-28 03:19 | 34.23634 | 24.75581 | 40028 ft | 442 kts | 303° |
| 2026-04-28 03:19 | 34.27232 | 24.69545 | 40028 ft | 442 kts | 303° |
| 2026-04-28 03:20 | 34.30834 | 24.63489 | 40031 ft | 442 kts | 303° |
| 2026-04-28 03:20 | 34.34404 | 24.57477 | 40031 ft | 442 kts | 303° |
| 2026-04-28 03:21 | 34.38005 | 24.51404 | 40031 ft | 442 kts | 303° |
| 2026-04-28 03:21 | 34.41593 | 24.45341 | 40031 ft | 443 kts | 303° |
| 2026-04-28 03:22 | 34.45162 | 24.39300 | 40033 ft | 442 kts | 303° |
| 2026-04-28 03:22 | 34.48742 | 24.33231 | 40031 ft | 442 kts | 303° |
| 2026-04-28 03:23 | 34.52321 | 24.27152 | 40031 ft | 442 kts | 303° |
| 2026-04-28 03:23 | 34.55877 | 24.21103 | 40030 ft | 443 kts | 303° |
| 2026-04-28 03:24 | 34.59458 | 24.15002 | 40030 ft | 443 kts | 303° |
| 2026-04-28 03:24 | 34.63007 | 24.08944 | 40032 ft | 442 kts | 303° |
| 2026-04-28 03:25 | 34.66574 | 24.02845 | 40031 ft | 442 kts | 303° |
| 2026-04-28 03:25 | 34.70136 | 23.96744 | 40030 ft | 442 kts | 303° |
| 2026-04-28 03:26 | 34.73676 | 23.90670 | 40029 ft | 442 kts | 303° |
| 2026-04-28 03:26 | 34.77237 | 23.84550 | 40030 ft | 442 kts | 303° |
| 2026-04-28 03:27 | 34.80786 | 23.78440 | 40035 ft | 441 kts | 303° |
| 2026-04-28 03:27 | 34.84332 | 23.72324 | 40030 ft | 442 kts | 303° |
| 2026-04-28 03:28 | 34.87855 | 23.66237 | 40036 ft | 441 kts | 303° |
| 2026-04-28 03:28 | 34.91394 | 23.60114 | 40036 ft | 441 kts | 303° |
| 2026-04-28 03:29 | 34.94911 | 23.54018 | 40032 ft | 441 kts | 303° |
| 2026-04-28 03:29 | 34.98442 | 23.47885 | 40039 ft | 440 kts | 303° |
| 2026-04-28 03:30 | 35.01940 | 23.41800 | 40033 ft | 440 kts | 303° |
| 2026-04-28 03:30 | 35.05450 | 23.35683 | 40044 ft | 440 kts | 303° |
| 2026-04-28 03:31 | 35.08970 | 23.29540 | 40043 ft | 440 kts | 303° |
| 2026-04-28 03:31 | 35.12457 | 23.23443 | 40049 ft | 440 kts | 303° |
| 2026-04-28 03:32 | 35.15958 | 23.17309 | 40037 ft | 440 kts | 303° |
| 2026-04-28 03:32 | 35.18299 | 23.13203 | 40059 ft | 440 kts | 303° |